Terminal Aerodrome Forecast
Issued by NWS Albany, NY

Home | Current Version | Previous Version | Text Only | Print | Product List | Glossary On
Versions: 1 2 3 4 5 6 7 8 9 10 11 12 13 14 15 16 17 18 19 20 21
812
FTUS41 KALY 280100 AAA
TAFGFL
TAF AMD
KGFL 280100Z 2801/2824 15009KT P6SM OVC035
     FM280700 18006KT 6SM BR VCSH BKN060
     FM280900 18006KT P6SM OVC025
     FM281100 22006KT P6SM BKN250 PROB30 2811/2812 4SM -SHRA OVC040
     FM281400 23007KT P6SM SCT250=

USA.gov is the U.S. government's official web portal to all federal, state and local government web resources and services.